createdAt,value
2022-11-06T00:02:30.782Z,6.70
2022-11-06T00:05:18.989Z,6.70
2022-11-06T00:08:01.996Z,6.70
2022-11-06T00:10:38.378Z,6.70
2022-11-06T00:13:27.283Z,6.70
2022-11-06T00:16:12.345Z,6.70
2022-11-06T00:18:40.060Z,6.70
2022-11-06T00:21:16.293Z,6.70
2022-11-06T00:23:46.564Z,6.60
2022-11-06T00:26:21.638Z,6.50
2022-11-06T00:28:54.024Z,6.60
2022-11-06T00:31:35.084Z,6.60
2022-11-06T00:34:08.859Z,6.50
2022-11-06T00:36:40.665Z,6.50
2022-11-06T00:39:17.230Z,6.50
2022-11-06T00:41:50.878Z,6.60
2022-11-06T00:44:30.391Z,6.50
2022-11-06T00:47:01.697Z,6.60
2022-11-06T00:49:42.822Z,6.60
2022-11-06T00:52:12.235Z,6.60
2022-11-06T00:54:46.533Z,6.50
2022-11-06T00:57:20.362Z,6.20
2022-11-06T00:59:50.349Z,6.10
2022-11-06T01:02:27.419Z,6.30
2022-11-06T01:05:01.648Z,6.40
2022-11-06T01:07:37.127Z,6.50
2022-11-06T01:10:05.232Z,6.50
2022-11-06T01:12:41.533Z,6.50
2022-11-06T01:15:21.286Z,6.40
2022-11-06T01:18:04.328Z,6.30
2022-11-06T01:20:39.404Z,6.30
2022-11-06T01:23:10.676Z,6.30
2022-11-06T01:25:45.079Z,6.40
2022-11-06T01:28:25.388Z,6.30
2022-11-06T01:31:02.605Z,6.30
2022-11-06T01:33:32.074Z,6.30
2022-11-06T01:36:17.221Z,6.30
2022-11-06T01:39:01.074Z,6.20
2022-11-06T01:41:46.519Z,6.00
2022-11-06T01:44:48.892Z,5.90
2022-11-06T01:47:26.492Z,5.90
2022-11-06T01:50:00.753Z,6.00
2022-11-06T01:52:43.578Z,5.90
2022-11-06T01:55:22.535Z,5.90
2022-11-06T01:58:25.071Z,5.80
2022-11-06T02:00:58.632Z,5.90
2022-11-06T02:03:46.876Z,5.90
2022-11-06T02:06:20.748Z,5.90
2022-11-06T02:09:03.630Z,5.90
2022-11-06T02:11:42.016Z,5.90
2022-11-06T02:14:35.125Z,6.00
2022-11-06T02:17:14.883Z,6.00
2022-11-06T02:20:08.722Z,5.90
2022-11-06T02:23:04.144Z,6.00
2022-11-06T02:26:33.540Z,5.90
2022-11-06T02:29:22.859Z,5.90
2022-11-06T02:31:59.327Z,5.80
2022-11-06T02:38:25.429Z,5.80
2022-11-06T02:41:05.020Z,5.80
2022-11-06T02:43:39.169Z,5.70
2022-11-06T02:46:37.483Z,5.80
2022-11-06T02:49:12.286Z,5.90
2022-11-06T02:51:51.182Z,6.10
2022-11-06T02:54:32.078Z,6.10
2022-11-06T02:57:14.143Z,5.90
2022-11-06T02:59:53.995Z,5.80
2022-11-06T03:02:34.562Z,5.70
2022-11-06T03:05:17.263Z,5.60
2022-11-06T03:08:21.078Z,5.60
2022-11-06T03:11:13.602Z,5.70
2022-11-06T03:14:14.370Z,5.70
2022-11-06T03:16:51.286Z,5.60
2022-11-06T03:19:35.307Z,5.60
2022-11-06T03:22:31.942Z,5.50
2022-11-06T03:25:09.345Z,5.50
2022-11-06T03:27:45.582Z,5.50
2022-11-06T03:30:16.719Z,5.50
2022-11-06T03:32:53.038Z,5.50
2022-11-06T03:35:35.980Z,5.50
2022-11-06T03:38:23.743Z,5.60
2022-11-06T03:40:53.768Z,5.60
2022-11-06T03:43:24.202Z,5.60
2022-11-06T03:45:53.240Z,5.70
2022-11-06T03:48:31.992Z,5.60
2022-11-06T03:51:20.112Z,5.50
2022-11-06T03:53:51.587Z,5.50
2022-11-06T03:56:25.590Z,5.50
2022-11-06T03:58:54.165Z,5.50
2022-11-06T04:01:25.296Z,5.50
2022-11-06T04:03:58.346Z,5.40
2022-11-06T04:06:51.830Z,5.40
2022-11-06T04:09:40.096Z,5.30
2022-11-06T04:12:29.318Z,5.30
2022-11-06T04:14:59.464Z,5.20
2022-11-06T04:17:28.877Z,5.20
2022-11-06T04:20:00.709Z,5.10
2022-11-06T04:22:53.644Z,5.00
2022-11-06T04:26:08.319Z,5.00
2022-11-06T04:28:51.723Z,4.90
2022-11-06T04:31:24.056Z,4.90
2022-11-06T04:34:16.983Z,4.80
2022-11-06T04:36:59.065Z,4.90
2022-11-06T04:39:32.363Z,4.80
2022-11-06T04:42:31.035Z,4.70
2022-11-06T04:45:25.168Z,4.80
2022-11-06T04:47:57.545Z,4.80
2022-11-06T04:50:34.315Z,4.80
2022-11-06T04:53:07.239Z,4.80
2022-11-06T04:55:45.322Z,4.70
2022-11-06T04:58:13.487Z,4.70
2022-11-06T05:00:51.821Z,4.70
2022-11-06T05:03:19.805Z,4.80
2022-11-06T05:05:56.207Z,4.90
2022-11-06T05:08:24.148Z,4.90
2022-11-06T05:10:52.956Z,4.80
2022-11-06T05:13:24.779Z,4.80
2022-11-06T05:16:24.936Z,4.60
2022-11-06T05:19:03.118Z,4.70
2022-11-06T05:21:54.397Z,4.70
2022-11-06T05:24:21.166Z,4.80
2022-11-06T05:26:47.938Z,5.00
2022-11-06T05:29:15.037Z,5.00
2022-11-06T05:31:52.763Z,5.10
2022-11-06T05:34:30.233Z,5.20
2022-11-06T05:37:05.446Z,5.10
2022-11-06T05:39:40.536Z,5.00
2022-11-06T05:42:10.740Z,5.00
2022-11-06T05:44:39.864Z,5.00
2022-11-06T05:47:10.337Z,5.00
2022-11-06T05:49:44.738Z,4.90
2022-11-06T05:52:11.608Z,4.80
2022-11-06T05:54:44.269Z,4.70
2022-11-06T05:57:16.126Z,4.70
2022-11-06T05:59:46.072Z,4.60
2022-11-06T06:02:19.297Z,4.60
2022-11-06T06:04:52.134Z,4.60
2022-11-06T06:07:26.557Z,4.60
2022-11-06T06:10:02.535Z,4.70
2022-11-06T06:12:40.750Z,4.60
2022-11-06T06:15:11.622Z,4.70
2022-11-06T06:17:45.944Z,5.00
2022-11-06T06:20:28.532Z,5.20
2022-11-06T06:23:03.952Z,5.30
2022-11-06T06:25:39.709Z,5.20
2022-11-06T06:28:14.641Z,5.10
2022-11-06T06:30:49.210Z,5.20
2022-11-06T06:33:20.965Z,5.20
2022-11-06T06:35:52.373Z,5.20
2022-11-06T06:41:14.317Z,4.90
2022-11-06T06:44:03.799Z,4.90
2022-11-06T06:46:42.455Z,4.70
2022-11-06T06:49:14.128Z,4.60
2022-11-06T06:51:56.457Z,4.70
2022-11-06T06:54:45.469Z,4.70
2022-11-06T06:57:27.381Z,4.80
2022-11-06T06:59:55.742Z,4.80
2022-11-06T07:02:32.277Z,4.50
2022-11-06T07:05:08.106Z,4.50
2022-11-06T07:07:48.561Z,4.50
2022-11-06T07:10:22.942Z,4.60
2022-11-06T07:13:05.175Z,4.60
2022-11-06T07:15:42.405Z,4.50
2022-11-06T07:18:15.810Z,4.60
2022-11-06T07:20:48.926Z,4.70
2022-11-06T07:23:22.842Z,4.70
2022-11-06T07:26:01.054Z,4.70
2022-11-06T07:28:35.406Z,4.70
2022-11-06T07:31:05.053Z,4.60
2022-11-06T07:33:38.101Z,4.60
2022-11-06T07:36:31.811Z,4.70
2022-11-06T07:38:58.650Z,4.70
2022-11-06T07:41:27.854Z,4.70
2022-11-06T07:43:56.503Z,4.70
2022-11-06T07:46:25.547Z,4.80
2022-11-06T07:48:52.552Z,4.80
2022-11-06T07:51:19.698Z,4.90
2022-11-06T07:53:46.586Z,4.90
2022-11-06T07:56:13.490Z,5.00
2022-11-06T07:58:40.448Z,5.20
2022-11-06T08:01:17.699Z,5.20
2022-11-06T08:03:45.348Z,5.30
2022-11-06T08:06:16.818Z,5.30
2022-11-06T08:08:46.506Z,5.40
2022-11-06T08:11:13.889Z,5.40
2022-11-06T08:13:53.118Z,5.50
2022-11-06T08:16:20.338Z,5.60
2022-11-06T08:18:47.660Z,5.70
2022-11-06T08:21:17.517Z,5.70
2022-11-06T08:23:53.503Z,5.70
2022-11-06T08:26:20.617Z,5.80
2022-11-06T08:28:49.477Z,5.80
2022-11-06T08:31:31.606Z,5.90
2022-11-06T08:34:01.899Z,5.80
2022-11-06T08:36:33.478Z,6.10
2022-11-06T08:39:00.233Z,6.30
2022-11-06T08:41:27.046Z,6.40
2022-11-06T08:43:55.277Z,6.50
2022-11-06T08:46:44.409Z,6.40
2022-11-06T08:49:16.004Z,6.40
2022-11-06T08:51:52.267Z,6.40
2022-11-06T08:54:37.433Z,6.40
2022-11-06T08:57:09.149Z,6.40
2022-11-06T08:59:35.942Z,6.50
2022-11-06T09:02:13.458Z,6.50
2022-11-06T09:04:47.952Z,6.50
2022-11-06T09:07:24.442Z,6.50
2022-11-06T09:09:51.473Z,6.50
2022-11-06T09:12:18.359Z,6.60
2022-11-06T09:14:45.359Z,6.70
2022-11-06T09:17:12.373Z,6.70
2022-11-06T09:19:39.188Z,6.60
2022-11-06T09:22:08.397Z,6.60
2022-11-06T09:24:57.686Z,6.30
2022-11-06T09:27:23.240Z,6.50
2022-11-06T09:29:50.142Z,6.40
2022-11-06T09:32:17.064Z,6.40
2022-11-06T09:34:45.162Z,6.50
2022-11-06T09:37:12.487Z,6.50
2022-11-06T09:39:39.481Z,6.60
2022-11-06T09:42:30.228Z,6.70
2022-11-06T09:44:59.867Z,6.70
2022-11-06T09:47:32.951Z,6.70
2022-11-06T09:50:01.220Z,6.70
2022-11-06T09:52:39.963Z,6.80
2022-11-06T09:55:22.396Z,6.80
2022-11-06T09:57:55.670Z,6.90
2022-11-06T10:00:23.386Z,6.90
2022-11-06T10:02:51.619Z,7.00
2022-11-06T10:05:31.349Z,7.30
2022-11-06T10:08:07.389Z,7.30
2022-11-06T10:10:53.753Z,7.30
2022-11-06T10:13:54.977Z,7.20
2022-11-06T10:17:06.409Z,7.30
2022-11-06T10:20:03.264Z,7.50
2022-11-06T10:22:40.613Z,7.50
2022-11-06T10:25:23.314Z,7.60
2022-11-06T10:28:02.099Z,7.70
2022-11-06T10:30:49.471Z,7.80
2022-11-06T10:33:29.339Z,7.80
2022-11-06T10:36:24.616Z,7.70
2022-11-06T10:38:53.673Z,7.90
2022-11-06T10:41:24.546Z,7.90
2022-11-06T10:44:04.025Z,8.00
2022-11-06T10:46:56.462Z,8.00
2022-11-06T10:49:37.831Z,8.10
2022-11-06T10:52:43.500Z,8.10
2022-11-06T10:55:43.807Z,8.10
2022-11-06T10:58:21.541Z,8.30
2022-11-06T11:00:50.360Z,8.30
2022-11-06T11:03:27.914Z,8.40
2022-11-06T11:05:56.094Z,8.50
2022-11-06T11:08:37.891Z,8.60
2022-11-06T11:11:14.062Z,8.70
2022-11-06T11:13:43.158Z,8.70
2022-11-06T11:16:18.279Z,8.70
2022-11-06T11:18:46.637Z,8.80
2022-11-06T11:21:19.447Z,8.90
2022-11-06T11:24:01.464Z,9.00
2022-11-06T11:26:30.852Z,9.10
2022-11-06T11:29:16.004Z,9.10
2022-11-06T11:31:47.809Z,9.20
2022-11-06T11:34:22.454Z,9.30
2022-11-06T11:37:08.327Z,9.40
2022-11-06T11:39:45.560Z,9.50
2022-11-06T11:42:31.804Z,9.60
2022-11-06T11:45:10.893Z,9.70
2022-11-06T11:47:43.016Z,9.70
2022-11-06T11:50:33.550Z,9.70
2022-11-06T11:53:14.653Z,9.60
2022-11-06T11:55:45.203Z,9.70
2022-11-06T11:58:20.940Z,9.70
2022-11-06T12:00:56.052Z,9.80
2022-11-06T12:03:26.014Z,9.80
2022-11-06T12:05:54.273Z,9.80
2022-11-06T12:08:26.286Z,9.90
2022-11-06T12:10:53.509Z,9.90
2022-11-06T12:13:22.559Z,9.90
2022-11-06T12:16:09.094Z,9.90
2022-11-06T12:18:55.967Z,9.90
2022-11-06T12:21:32.302Z,10.00
2022-11-06T12:24:03.961Z,9.90
2022-11-06T12:26:49.988Z,10.00
2022-11-06T12:29:32.187Z,10.00
2022-11-06T12:32:26.428Z,10.00
2022-11-06T12:35:07.097Z,9.80
2022-11-06T12:38:05.024Z,9.80
2022-11-06T12:40:39.059Z,10.10
2022-11-06T12:43:22.487Z,10.20
2022-11-06T12:46:08.228Z,10.20
2022-11-06T12:48:49.973Z,10.30
2022-11-06T12:51:44.512Z,10.30
2022-11-06T12:54:23.231Z,10.30
2022-11-06T12:57:25.155Z,10.30
2022-11-06T13:00:15.279Z,10.30
2022-11-06T13:03:03.326Z,10.30
2022-11-06T13:05:52.271Z,10.30
2022-11-06T13:08:47.376Z,10.30
2022-11-06T13:11:40.062Z,10.30
2022-11-06T13:14:27.055Z,10.30
2022-11-06T13:17:02.940Z,10.30
2022-11-06T13:19:29.580Z,10.20
2022-11-06T13:22:17.117Z,10.20
2022-11-06T13:24:46.724Z,10.20
2022-11-06T13:27:31.772Z,10.20
2022-11-06T13:30:04.235Z,10.20
2022-11-06T13:32:34.569Z,10.10
2022-11-06T13:35:02.385Z,10.20
2022-11-06T13:37:35.089Z,10.20
2022-11-06T13:40:24.200Z,10.20
2022-11-06T13:43:18.246Z,10.30
2022-11-06T13:46:03.789Z,10.40
2022-11-06T13:49:07.815Z,10.40
2022-11-06T13:51:40.601Z,10.50
2022-11-06T13:54:13.105Z,10.50
2022-11-06T13:57:22.085Z,10.50
2022-11-06T14:00:06.636Z,10.50
2022-11-06T14:03:07.361Z,10.40
2022-11-06T14:06:02.761Z,10.40
2022-11-06T14:08:40.864Z,10.40
2022-11-06T14:11:20.582Z,10.40
2022-11-06T14:14:08.183Z,10.40
2022-11-06T14:16:38.409Z,10.30
2022-11-06T14:19:11.656Z,10.30
2022-11-06T14:21:46.454Z,10.30
2022-11-06T14:24:19.241Z,10.20
2022-11-06T14:26:48.669Z,10.20
2022-11-06T14:29:28.726Z,10.20
2022-11-06T14:32:01.058Z,10.20
2022-11-06T14:34:30.450Z,10.20
2022-11-06T14:37:32.553Z,10.20
2022-11-06T14:40:01.730Z,10.20
2022-11-06T14:42:44.571Z,10.20
2022-11-06T14:45:34.151Z,10.30
2022-11-06T14:48:08.166Z,10.20
2022-11-06T14:50:52.928Z,10.10
2022-11-06T14:56:22.137Z,10.00
2022-11-06T14:59:06.323Z,10.00
2022-11-06T15:01:39.497Z,10.00
2022-11-06T15:04:25.281Z,10.00
2022-11-06T15:06:54.503Z,10.00
2022-11-06T15:09:26.802Z,9.90
2022-11-06T15:12:02.957Z,9.90
2022-11-06T15:14:32.185Z,9.90
2022-11-06T15:17:22.667Z,9.90
2022-11-06T15:20:26.664Z,9.90
2022-11-06T15:23:03.973Z,9.90
2022-11-06T15:25:50.445Z,9.80
2022-11-06T15:28:33.855Z,9.80
2022-11-06T15:31:13.464Z,9.80
2022-11-06T15:34:16.794Z,9.80
2022-11-06T15:36:50.597Z,9.80
2022-11-06T15:39:45.192Z,9.80
2022-11-06T15:42:35.361Z,9.80
2022-11-06T15:45:31.986Z,9.70
2022-11-06T15:51:19.472Z,9.70
2022-11-06T15:53:48.996Z,9.60
2022-11-06T15:56:34.039Z,9.60
2022-11-06T15:59:16.934Z,9.60
2022-11-06T16:01:55.038Z,9.60
2022-11-06T16:04:31.371Z,9.60
2022-11-06T16:07:12.639Z,9.60
2022-11-06T16:09:45.996Z,9.60
2022-11-06T16:12:39.603Z,9.60
2022-11-06T16:15:17.163Z,9.60
2022-11-06T16:20:47.048Z,9.60
2022-11-06T16:23:33.440Z,9.60
2022-11-06T16:26:16.310Z,9.50
2022-11-06T16:28:55.694Z,9.50
2022-11-06T16:31:35.770Z,9.50
2022-11-06T16:34:45.822Z,9.40
2022-11-06T16:37:18.500Z,9.40
2022-11-06T16:39:51.002Z,9.40
2022-11-06T16:42:25.395Z,9.40
2022-11-06T16:45:08.678Z,9.40
2022-11-06T16:47:36.570Z,9.40
2022-11-06T16:50:06.311Z,9.40
2022-11-06T16:52:33.117Z,9.40
2022-11-06T16:55:16.832Z,9.40
2022-11-06T16:57:47.954Z,9.40
2022-11-06T17:00:21.606Z,9.40
2022-11-06T17:02:58.658Z,9.30
2022-11-06T17:05:32.485Z,9.40
2022-11-06T17:08:18.104Z,9.30
2022-11-06T17:10:54.568Z,9.30
2022-11-06T17:13:22.525Z,9.30
2022-11-06T17:16:06.491Z,9.30
2022-11-06T17:18:36.568Z,9.30
2022-11-06T17:21:12.521Z,9.30
2022-11-06T17:23:39.730Z,9.30
2022-11-06T17:26:22.521Z,9.30
2022-11-06T17:28:49.459Z,9.30
2022-11-06T17:31:18.334Z,9.30
2022-11-06T17:33:45.581Z,9.30
2022-11-06T17:36:26.786Z,9.30
2022-11-06T17:38:55.104Z,9.40
2022-11-06T17:41:32.267Z,9.40
2022-11-06T17:44:10.602Z,9.40
2022-11-06T17:46:43.055Z,9.40
2022-11-06T17:49:16.791Z,9.40
2022-11-06T17:51:50.519Z,9.40
2022-11-06T17:54:22.661Z,9.40
2022-11-06T17:56:51.578Z,9.40
2022-11-06T17:59:18.761Z,9.40
2022-11-06T18:01:52.809Z,9.40
2022-11-06T18:04:25.662Z,9.40
2022-11-06T18:09:47.849Z,9.40
2022-11-06T18:12:21.379Z,9.40
2022-11-06T18:14:55.506Z,9.40
2022-11-06T18:17:24.712Z,9.50
2022-11-06T18:20:01.406Z,9.50
2022-11-06T18:22:37.134Z,9.50
2022-11-06T18:25:06.190Z,9.40
2022-11-06T18:27:39.673Z,9.40
2022-11-06T18:30:14.000Z,9.40
2022-11-06T18:33:04.120Z,9.30
2022-11-06T18:35:41.288Z,9.40
2022-11-06T18:38:27.889Z,9.40
2022-11-06T18:40:58.015Z,9.40
2022-11-06T18:43:27.377Z,9.40
2022-11-06T18:45:56.728Z,9.40
2022-11-06T18:48:28.275Z,9.50
2022-11-06T18:51:00.915Z,9.50
2022-11-06T18:53:32.544Z,9.50
2022-11-06T18:56:04.131Z,9.50
2022-11-06T18:58:43.275Z,9.50
2022-11-06T19:01:21.791Z,9.50
2022-11-06T19:03:53.141Z,9.60
2022-11-06T19:06:32.038Z,9.50
2022-11-06T19:09:10.594Z,9.60
2022-11-06T19:11:43.199Z,9.60
2022-11-06T19:14:13.110Z,9.60
2022-11-06T19:16:56.608Z,9.60
2022-11-06T19:19:32.003Z,9.60
2022-11-06T19:22:04.625Z,9.60
2022-11-06T19:24:49.036Z,9.60
2022-11-06T19:27:29.871Z,9.60
2022-11-06T19:30:10.205Z,9.60
2022-11-06T19:32:46.531Z,9.70
2022-11-06T19:35:24.483Z,9.70
2022-11-06T19:37:58.433Z,9.60
2022-11-06T19:40:41.145Z,9.60
2022-11-06T19:43:19.882Z,9.60
2022-11-06T19:45:57.422Z,9.60
2022-11-06T19:48:26.958Z,9.60
2022-11-06T19:51:09.558Z,9.60
2022-11-06T19:53:40.949Z,9.60
2022-11-06T19:56:16.608Z,9.60
2022-11-06T19:58:52.903Z,9.50
2022-11-06T20:01:26.554Z,9.50
2022-11-06T20:04:02.194Z,9.50
2022-11-06T20:06:42.217Z,9.50
2022-11-06T20:09:11.439Z,9.60
2022-11-06T20:11:40.797Z,9.50
2022-11-06T20:14:18.704Z,9.50
2022-11-06T20:24:57.641Z,9.50
2022-11-06T20:39:07.276Z,9.80
2022-11-06T20:42:44.382Z,9.80
2022-11-06T20:49:06.332Z,9.90
2022-11-06T20:55:09.966Z,9.90
2022-11-06T20:58:14.836Z,9.90
2022-11-06T21:01:12.481Z,10.00
2022-11-06T21:04:12.142Z,10.00
2022-11-06T21:14:55.163Z,10.00
2022-11-06T21:18:22.965Z,10.00
2022-11-06T21:21:39.969Z,10.10
2022-11-06T21:24:15.740Z,10.10
2022-11-06T21:37:02.697Z,10.30
2022-11-06T21:40:43.168Z,10.30
2022-11-06T21:44:11.433Z,10.20
2022-11-06T21:46:51.659Z,10.20
2022-11-06T21:49:18.648Z,10.10
2022-11-06T21:51:51.549Z,10.10
2022-11-06T21:57:45.166Z,10.10
2022-11-06T22:01:10.848Z,10.10
2022-11-06T22:07:38.710Z,10.00
2022-11-06T22:13:32.618Z,10.00
2022-11-06T22:16:11.165Z,10.00
2022-11-06T22:18:48.982Z,10.00
2022-11-06T22:21:28.610Z,10.00
2022-11-06T22:24:11.341Z,10.00
2022-11-06T22:26:48.755Z,10.10
2022-11-06T22:29:23.381Z,10.10
2022-11-06T22:31:55.331Z,10.10
2022-11-06T22:34:34.433Z,10.10
2022-11-06T22:37:01.413Z,10.10
2022-11-06T22:39:39.583Z,10.10
2022-11-06T22:42:13.442Z,10.10
2022-11-06T22:44:48.002Z,10.10
2022-11-06T22:47:28.660Z,10.10
2022-11-06T22:50:04.169Z,10.10
2022-11-06T22:52:33.178Z,10.10
2022-11-06T22:55:02.285Z,10.10
2022-11-06T22:57:45.579Z,10.10
2022-11-06T23:00:21.070Z,10.20
2022-11-06T23:02:57.763Z,10.10
2022-11-06T23:05:27.179Z,10.10
2022-11-06T23:07:56.703Z,10.10
2022-11-06T23:10:51.421Z,10.00
2022-11-06T23:13:26.756Z,10.00
2022-11-06T23:16:09.312Z,10.00
2022-11-06T23:18:43.505Z,10.00
2022-11-06T23:21:17.081Z,10.00
2022-11-06T23:23:49.863Z,10.00
2022-11-06T23:26:23.055Z,10.00
2022-11-06T23:28:52.731Z,10.00
2022-11-06T23:31:19.525Z,10.00
2022-11-06T23:33:48.682Z,9.90
2022-11-06T23:36:16.739Z,9.90
2022-11-06T23:38:47.118Z,10.00
2022-11-06T23:41:35.061Z,9.90
2022-11-06T23:44:05.450Z,9.90
2022-11-06T23:46:36.249Z,9.90
2022-11-06T23:49:05.585Z,9.90
2022-11-06T23:51:35.509Z,9.90
2022-11-06T23:54:04.394Z,9.90
2022-11-06T23:56:36.402Z,10.00
2022-11-06T23:59:08.357Z,10.00
